Terminal Aerodrome Forecast
Issued by NWS Charleston, WV

Current Version | Previous Version | Graphics & Text | Print | Product List | Glossary On
Versions: 1 2 3 4 5 6 7 8 9 10 11 12 13 14 15 16 17 18 19 20 21 22 23 24 25 26 27
000
FTUS41 KRLX 251740 AAB
TAFBKW
TAF AMD
KBKW 251740Z 2518/2618 28014G22KT P6SM BKN025
     FM251830 29014G23KT P6SM BKN035
     FM261200 29008KT P6SM SCT100
     FM261500 28007KT P6SM SKC=

USA.gov is the U.S. government's official web portal to all federal, state and local government web resources and services.